»·PEaware :: DIHNF KVNY-KAVX

DIHNF :: KVNY-KAVX

FLIGHT INFORMATION

Flight Status: Arrived
Operator: Unknown
More flights by this operator :: More flights under this callsign
Pilot: Klaus A. (15485)
Aircraft: BEECH AIRCRAFT BARON
(BE58)
More flights by this aircraft type
Origin: KVNY Van Nuys
United States
Destination: KAVX Catalina
United States
More flights between these airports :: More routes between these airports
Route: ADAMM2 ADAMM V186 BAYJY V363 DANAH SXC065R SXC
File this flight plan on PilotEdge
Remarks: TEC route BURP16
Altitude:
(Current/Filed)
5,000ft
Speed:
(Current/Filed)
170kts
Departed: 07-Feb-19 08:54 AM
Arrived: 07-Feb-19 09:48 AM
Distance/Time
Traveled:
48nm/0:54
Distance/Time
To Go:
Arrived

Flight Plot

Page will automatically refresh every two minutes.

Flight plan parsing failed; only flown route is shown


Map Options




Map Legend


Flown Route
Filed Route
Departure Airport
Arrival Airport
Navaid (VOR, NDB)
Fix

Horizontal Profiles

Position Reports

Time Latitude Longitude Heading Altitude Ground
Speed
07-Feb-19 08:38 34.217552 -118.500553 89 806ft 0kts
07-Feb-19 08:39 34.217552 -118.500553 89 806ft 0kts
07-Feb-19 08:40 34.217552 -118.500553 89 806ft 0kts
07-Feb-19 08:41 34.217552 -118.500553 89 806ft 0kts
07-Feb-19 08:42 34.217552 -118.500553 89 806ft 0kts
07-Feb-19 08:43 34.217552 -118.500553 89 806ft 0kts
07-Feb-19 08:44 34.217348 -118.499818 181 806ft 8kts
07-Feb-19 08:45 34.215349 -118.498983 57 806ft 9kts
07-Feb-19 08:46 34.217259 -118.495979 65 806ft 4kts
07-Feb-19 08:47 34.217218 -118.492870 88 806ft 0kts
07-Feb-19 08:48 34.218694 -118.492161 62 806ft 0kts
07-Feb-19 08:49 34.218694 -118.492161 62 806ft 0kts
07-Feb-19 08:50 34.218694 -118.492161 62 806ft 0kts
07-Feb-19 08:51 34.218694 -118.492161 62 806ft 0kts
07-Feb-19 08:52 34.218101 -118.491155 177 806ft 19kts
07-Feb-19 08:53 34.191217 -118.488478 174 1541ft 136kts
07-Feb-19 08:54 34.158005 -118.469923 123 2557ft 129kts
07-Feb-19 08:55 34.141530 -118.430330 113 3665ft 130kts
07-Feb-19 08:56 34.128925 -118.388520 107 4643ft 134kts
07-Feb-19 08:57 34.115988 -118.344105 112 5028ft 161kts
07-Feb-19 08:58 34.108022 -118.291750 91 5332ft 170kts
07-Feb-19 08:59 34.113474 -118.233959 81 5434ft 173kts
07-Feb-19 09:00 34.123730 -118.175094 100 5113ft 171kts
07-Feb-19 09:01 34.109836 -118.121851 112 5028ft 165kts
07-Feb-19 09:02 34.094802 -118.070246 110 5027ft 161kts
07-Feb-19 09:03 34.080810 -118.018598 112 5027ft 161kts
07-Feb-19 09:04 34.065162 -117.967892 113 5027ft 160kts
07-Feb-19 09:05 34.048749 -117.917479 114 5029ft 163kts
07-Feb-19 09:06 34.031922 -117.866786 114 5045ft 164kts
07-Feb-19 09:07 34.014845 -117.815697 114 5027ft 164kts
07-Feb-19 09:08 33.980693 -117.791246 177 5027ft 160kts
07-Feb-19 09:10 33.936353 -117.785964 176 5026ft 160kts
07-Feb-19 09:11 33.891784 -117.783607 177 5019ft 160kts
07-Feb-19 09:12 33.846898 -117.782136 178 5021ft 161kts
07-Feb-19 09:13 33.802200 -117.780982 178 5028ft 161kts
07-Feb-19 09:14 33.759142 -117.769449 159 5029ft 161kts
07-Feb-19 09:15 33.717444 -117.750157 159 5028ft 161kts
07-Feb-19 09:16 33.675675 -117.730834 159 5028ft 161kts
07-Feb-19 09:17 33.632238 -117.720981 180 5028ft 161kts
07-Feb-19 09:18 33.588107 -117.715998 168 5028ft 160kts
07-Feb-19 09:19 33.544019 -117.706397 170 5028ft 160kts
07-Feb-19 09:20 33.499957 -117.697604 172 5027ft 161kts
07-Feb-19 09:21 33.476656 -117.739798 247 5028ft 168kts
07-Feb-19 09:22 33.463595 -117.793448 260 5028ft 170kts
07-Feb-19 09:23 33.458177 -117.849804 260 5028ft 170kts
07-Feb-19 09:24 33.450393 -117.905694 256 5028ft 170kts
07-Feb-19 09:25 33.442300 -117.961288 257 5028ft 170kts
07-Feb-19 09:25 33.435564 -118.007753 257 5028ft 170kts
07-Feb-19 09:27 33.426092 -118.073066 257 5002ft 171kts
07-Feb-19 09:28 33.417791 -118.128613 255 5029ft 169kts
07-Feb-19 09:29 33.408675 -118.183504 257 4982ft 161kts
07-Feb-19 09:29 33.402433 -118.227540 256 4510ft 161kts
07-Feb-19 09:30 33.395060 -118.279887 255 4115ft 152kts
07-Feb-19 09:32 33.386804 -118.334335 258 4203ft 135kts
07-Feb-19 09:33 33.381172 -118.379497 256 4190ft 136kts
07-Feb-19 09:33 33.385799 -118.414002 339 4101ft 150kts
07-Feb-19 09:34 33.426031 -118.410877 0 4157ft 144kts
07-Feb-19 09:35 33.466391 -118.409301 4 4138ft 145kts
07-Feb-19 09:36 33.505945 -118.412495 320 3700ft 150kts
07-Feb-19 09:37 33.535728 -118.444040 321 3419ft 143kts
07-Feb-19 09:38 33.548027 -118.424925 150 3421ft 108kts
07-Feb-19 09:39 33.521401 -118.407750 167 3413ft 109kts
07-Feb-19 09:40 33.492939 -118.406169 184 2615ft 102kts
07-Feb-19 09:41 33.466385 -118.408213 180 2218ft 92kts
07-Feb-19 09:42 33.439551 -118.411531 180 2256ft 101kts
07-Feb-19 09:43 33.412537 -118.409057 172 2014ft 86kts
07-Feb-19 09:44 33.399880 -118.432740 292 2234ft 107kts
07-Feb-19 09:45 33.423290 -118.427238 53 2374ft 106kts
07-Feb-19 09:46 33.421442 -118.400875 147 2325ft 100kts
07-Feb-19 09:47 33.404216 -118.417065 229 1606ft 16kts
07-Feb-19 09:48 33.403900 -118.415113 347 1606ft 0kts
07-Feb-19 09:49 33.403900 -118.415113 347 1606ft 0kts
07-Feb-19 09:50 33.403914 -118.415117 347 1606ft 0kts
07-Feb-19 09:51 33.403914 -118.415117 347 1606ft 0kts

Navigation Log

Ident Type
Flight plan parsing failed, navigation log unavailable